Treadway, Tennessee
Current Conditions -  °F | °C
As of 11:15 AM on Thursday 30 Oct 2014 (Local Time) from KMOR Reporting Station
Clear Clear  
Wind Chill: 52°   Ceiling: Unl
Heat Index: 52°   Visibility: 10mi
Dew Point: 41°   Wind: 3mph
Humidity: 67%   Direction: 90°E
Pressure: 30.12"   Gusts: NA
Location:  36.3965°N, 83.3588°W
Report Text: KMOR 301515Z AUTO 09003KT 10SM CLR 11/05 A3012 RMK
Loading
Personal Weather Stations






























Interactive Weather Map
Tropical Storm Tracking
New forecast layout! Learn more

10-Day Weather Forecast

Advertisements
Track Severe Weather on mobile